createdAt,value
2019-03-30T00:02:56.742Z,10.10
2019-03-30T00:08:56.730Z,10.30
2019-03-30T00:14:56.766Z,10.30
2019-03-30T00:20:56.828Z,10.40
2019-03-30T00:26:56.747Z,10.20
2019-03-30T00:32:56.808Z,10.80
2019-03-30T00:38:56.765Z,10.50
2019-03-30T00:44:56.771Z,10.80
2019-03-30T00:50:56.752Z,10.60
2019-03-30T00:56:56.823Z,10.40
2019-03-30T01:02:57.831Z,12.80
2019-03-30T01:08:56.768Z,10.60
2019-03-30T01:14:56.833Z,11.90
2019-03-30T01:20:56.755Z,11.30
2019-03-30T01:26:56.787Z,12.00
2019-03-30T01:32:56.850Z,12.00
2019-03-30T01:38:56.822Z,11.20
2019-03-30T01:44:56.805Z,11.80
2019-03-30T01:50:56.756Z,11.10
2019-03-30T01:56:56.794Z,9.90
2019-03-30T02:02:56.776Z,10.80
2019-03-30T02:08:56.808Z,9.80
2019-03-30T02:14:56.794Z,10.30
2019-03-30T02:20:56.850Z,10.50
2019-03-30T02:26:56.839Z,11.00
2019-03-30T02:32:56.858Z,10.10
2019-03-30T02:38:56.869Z,11.00
2019-03-30T02:44:56.799Z,10.90
2019-03-30T02:50:56.834Z,10.70
2019-03-30T02:56:56.783Z,11.80
2019-03-30T03:02:56.878Z,11.90
2019-03-30T03:08:56.807Z,12.50
2019-03-30T03:14:56.847Z,12.10
2019-03-30T03:21:07.439Z,12.20
2019-03-30T03:26:57.950Z,11.70
2019-03-30T03:32:56.883Z,11.60
2019-03-30T03:38:56.830Z,11.60
2019-03-30T03:44:56.825Z,12.30
2019-03-30T03:50:56.860Z,12.70
2019-03-30T03:56:56.838Z,13.50
2019-03-30T04:02:56.871Z,13.80
2019-03-30T04:08:56.919Z,13.50
2019-03-30T04:14:56.912Z,12.30
2019-03-30T04:20:56.938Z,13.60
2019-03-30T04:26:56.840Z,13.80
2019-03-30T04:32:56.982Z,13.50
2019-03-30T04:38:56.843Z,12.70
2019-03-30T04:44:56.905Z,14.30
2019-03-30T04:50:56.903Z,13.40
2019-03-30T04:56:56.863Z,13.40
2019-03-30T05:02:56.870Z,13.00
2019-03-30T05:08:56.879Z,13.20
2019-03-30T05:14:56.917Z,13.30
2019-03-30T05:20:56.870Z,13.00
2019-03-30T05:26:56.944Z,14.30
2019-03-30T05:33:05.653Z,12.60
2019-03-30T05:38:56.895Z,13.00
2019-03-30T05:44:57.976Z,12.30
2019-03-30T05:50:56.896Z,13.20
2019-03-30T05:56:56.970Z,17.70
2019-03-30T06:02:56.883Z,16.10
2019-03-30T06:08:56.894Z,18.60
2019-03-30T06:14:56.877Z,19.00
2019-03-30T06:20:56.895Z,15.20
2019-03-30T06:26:56.891Z,13.30
2019-03-30T06:32:56.921Z,15.60
2019-03-30T06:38:56.891Z,13.90
2019-03-30T06:44:59.225Z,12.60
2019-03-30T06:50:56.872Z,13.50
2019-03-30T06:56:56.889Z,13.50
2019-03-30T07:02:56.885Z,13.30
2019-03-30T07:08:56.918Z,14.10
2019-03-30T07:14:56.917Z,13.70
2019-03-30T07:20:56.913Z,14.20
2019-03-30T07:26:56.917Z,14.40
2019-03-30T07:32:56.935Z,13.20
2019-03-30T07:38:56.957Z,13.10
2019-03-30T07:44:58.040Z,11.90
2019-03-30T07:50:56.930Z,12.30
2019-03-30T07:57:05.407Z,11.40
2019-03-30T08:02:56.909Z,11.60
2019-03-30T08:08:57.022Z,11.30
2019-03-30T08:14:56.931Z,10.70
2019-03-30T08:20:56.947Z,11.10
2019-03-30T08:26:56.959Z,10.80
2019-03-30T08:32:56.920Z,11.00
2019-03-30T08:38:57.071Z,10.50
2019-03-30T08:44:57.044Z,10.80
2019-03-30T08:50:57.949Z,10.80
2019-03-30T08:56:57.003Z,11.00
2019-03-30T09:02:56.942Z,10.40
2019-03-30T09:08:56.982Z,11.20
2019-03-30T09:14:56.978Z,10.20
2019-03-30T09:20:57.116Z,10.90
2019-03-30T09:26:57.003Z,10.60
2019-03-30T09:32:56.967Z,10.70
2019-03-30T09:38:57.011Z,11.00
2019-03-30T09:44:57.012Z,10.30
2019-03-30T09:50:56.989Z,10.50
2019-03-30T09:56:57.051Z,10.90
2019-03-30T10:02:57.044Z,10.50
2019-03-30T10:08:57.020Z,10.70
2019-03-30T10:14:57.019Z,10.90
2019-03-30T10:20:57.028Z,9.90
2019-03-30T10:26:57.081Z,11.00
2019-03-30T10:32:57.061Z,10.50
2019-03-30T10:38:57.021Z,11.20
2019-03-30T10:44:57.080Z,11.10
2019-03-30T10:50:57.056Z,11.30
2019-03-30T10:56:57.085Z,9.90
2019-03-30T11:02:57.088Z,9.70
2019-03-30T11:08:57.086Z,11.40
2019-03-30T11:14:57.288Z,10.00
2019-03-30T11:20:58.175Z,10.10
2019-03-30T11:26:58.166Z,10.00
2019-03-30T11:32:57.093Z,11.10
2019-03-30T11:38:57.298Z,11.00
2019-03-30T11:44:57.124Z,11.10
2019-03-30T11:50:57.116Z,11.90
2019-03-30T11:56:57.140Z,11.60
2019-03-30T12:02:57.131Z,12.20
2019-03-30T12:08:57.149Z,11.60
2019-03-30T12:14:57.963Z,9.30
2019-03-30T12:20:57.199Z,11.20
2019-03-30T12:26:58.224Z,8.80
2019-03-30T12:32:57.182Z,10.20
2019-03-30T12:38:57.257Z,8.00
2019-03-30T12:44:57.215Z,8.30
2019-03-30T12:50:57.237Z,9.20
2019-03-30T12:56:57.216Z,8.20
2019-03-30T13:02:57.231Z,7.90
2019-03-30T13:08:57.395Z,6.10
2019-03-30T13:14:57.249Z,4.70
2019-03-30T13:20:57.255Z,5.90
2019-03-30T13:26:57.200Z,6.70
2019-03-30T13:32:57.243Z,5.20
2019-03-30T13:38:57.320Z,3.80
2019-03-30T13:44:57.417Z,4.30
2019-03-30T13:50:57.290Z,4.70
2019-03-30T13:56:57.820Z,4.40
2019-03-30T14:02:57.597Z,4.70
2019-03-30T14:08:57.267Z,5.70
2019-03-30T14:14:57.269Z,5.10
2019-03-30T14:20:57.375Z,5.40
2019-03-30T14:26:57.337Z,5.00
2019-03-30T14:32:57.272Z,4.90
2019-03-30T14:38:57.308Z,5.20
2019-03-30T14:44:57.306Z,4.70
2019-03-30T14:50:57.428Z,4.30
2019-03-30T14:56:57.342Z,4.10
2019-03-30T15:02:57.332Z,4.20
2019-03-30T15:08:57.399Z,4.40
2019-03-30T15:14:57.312Z,4.50
2019-03-30T15:20:58.177Z,4.60
2019-03-30T15:27:00.914Z,4.40
2019-03-30T15:32:57.538Z,3.90
2019-03-30T15:38:57.356Z,4.00
2019-03-30T15:44:57.321Z,4.20
2019-03-30T15:50:57.395Z,3.60
2019-03-30T15:56:57.501Z,4.30
2019-03-30T16:02:57.342Z,8.10
2019-03-30T16:08:57.383Z,3.90
2019-03-30T16:14:57.382Z,3.80
2019-03-30T16:20:57.375Z,4.10
2019-03-30T16:26:57.358Z,4.40
2019-03-30T16:32:57.413Z,3.50
2019-03-30T16:38:57.368Z,3.90
2019-03-30T16:44:57.429Z,4.30
2019-03-30T16:50:57.388Z,4.80
2019-03-30T16:56:57.401Z,4.20
2019-03-30T17:02:57.425Z,7.20
2019-03-30T17:08:57.395Z,3.80
2019-03-30T17:14:57.453Z,3.30
2019-03-30T17:20:57.449Z,4.70
2019-03-30T17:26:57.459Z,6.50
2019-03-30T17:32:57.421Z,3.90
2019-03-30T17:38:57.454Z,4.10
2019-03-30T17:44:57.479Z,3.40
2019-03-30T17:50:58.315Z,3.10
2019-03-30T17:56:57.541Z,2.90
2019-03-30T18:02:57.466Z,3.50
2019-03-30T18:08:57.438Z,7.30
2019-03-30T18:14:57.509Z,9.40
2019-03-30T18:20:57.487Z,18.20
2019-03-30T18:26:57.456Z,6.30
2019-03-30T18:32:57.505Z,6.20
2019-03-30T18:39:08.806Z,8.10
2019-03-30T18:44:57.513Z,5.80
2019-03-30T18:50:57.533Z,7.60
2019-03-30T18:56:57.496Z,9.30
2019-03-30T19:02:57.618Z,9.40
2019-03-30T19:08:57.505Z,7.50
2019-03-30T19:14:58.296Z,7.70
2019-03-30T19:20:57.501Z,6.50
2019-03-30T19:26:57.539Z,6.80
2019-03-30T19:32:57.489Z,7.80
2019-03-30T19:38:57.513Z,6.80
2019-03-30T19:44:57.473Z,7.80
2019-03-30T19:50:57.559Z,7.20
2019-03-30T19:56:57.515Z,6.10
2019-03-30T20:02:57.498Z,6.00
2019-03-30T20:08:57.515Z,5.30
2019-03-30T20:14:57.557Z,10.40
2019-03-30T20:20:57.583Z,9.70
2019-03-30T20:26:57.530Z,8.90
2019-03-30T20:32:58.602Z,8.70
2019-03-30T20:38:58.642Z,7.70
2019-03-30T20:44:57.532Z,6.50
2019-03-30T20:50:57.555Z,7.50
2019-03-30T20:56:57.560Z,6.90
2019-03-30T21:02:57.588Z,6.50
2019-03-30T21:08:57.577Z,12.50
2019-03-30T21:14:58.215Z,5.70
2019-03-30T21:20:57.618Z,7.10
2019-03-30T21:26:58.640Z,6.10
2019-03-30T21:32:58.666Z,5.30
2019-03-30T21:38:57.594Z,5.40
2019-03-30T21:44:58.095Z,5.80
2019-03-30T21:50:57.584Z,8.20
2019-03-30T21:56:57.599Z,10.60
2019-03-30T22:02:57.574Z,9.50
2019-03-30T22:08:57.603Z,9.20
2019-03-30T22:14:57.629Z,7.60
2019-03-30T22:20:57.643Z,7.00
2019-03-30T22:26:57.617Z,6.70
2019-03-30T22:32:57.676Z,6.30
2019-03-30T22:38:57.744Z,7.10
2019-03-30T22:44:57.806Z,7.40
2019-03-30T22:50:57.630Z,6.90
2019-03-30T22:56:57.756Z,7.40
2019-03-30T23:02:57.639Z,7.80
2019-03-30T23:08:57.621Z,8.10
2019-03-30T23:14:57.734Z,7.20
2019-03-30T23:20:57.648Z,7.80
2019-03-30T23:26:57.626Z,8.80
2019-03-30T23:32:57.707Z,9.00
2019-03-30T23:38:57.808Z,9.50
2019-03-30T23:44:57.662Z,9.30
2019-03-30T23:50:57.690Z,10.00
2019-03-30T23:56:58.836Z,9.60
